KGED/GED METAR and TAF weather

Enter ICAO airport designator
Station Type Date Time Source
KGED METAR 2019/12/08 16:54 UTC NOAA

KGED 081654Z AUTO 13008KT 10SM CLR 08/M01 A3049 RMK AO2 SLP324 T00831006 $


Station Type Date Time Source
KGED Decoded METAR 2019/12/08 16:54 UTC NOAA

GEORGETOWN SUSSEX CO AIRPORT , DE, United States (KGED) 38-41N 075-22W 19M
Dec 08, 2019 - 11:54 AM EST / 2019.12.08 1654 UTC
Wind: from the SE (130 degrees) at 9 MPH (8 KT):0
Visibility: 10 mile(s):0
Sky conditions: clear
Temperature: 46.9 F (8.3 C)
Dew Point: 30.9 F (-0.6 C)
Relative Humidity: 53%
Pressure (altimeter): 30.49 in. Hg (1032 hPa)
ob: KGED 081654Z AUTO 13008KT 10SM CLR 08/M01 A3049 RMK AO2 SLP324 T00831006
cycle: 17

Station Type Date Time Source
KGED TAF UTC NOAA

Error!

Example: see airport list